sensor_id;sensor_type;location;lat;lon;timestamp;pressure;altitude;pressure_sealevel;temperature;humidity
66021;BME280;52789;59.980;30.346;2023-06-22T00:01:48;101324.25;;;19.87;65.13
66021;BME280;52789;59.980;30.346;2023-06-22T00:04:14;101328.41;;;19.89;66.44
66021;BME280;52789;59.980;30.346;2023-06-22T00:06:39;101322.16;;;19.89;67.02
66021;BME280;52789;59.980;30.346;2023-06-22T00:09:05;101334.03;;;19.88;66.45
66021;BME280;52789;59.980;30.346;2023-06-22T00:11:31;101315.75;;;19.83;66.81
66021;BME280;52789;59.980;30.346;2023-06-22T00:13:58;101308.25;;;19.78;67.22
66021;BME280;52789;59.980;30.346;2023-06-22T00:16:23;101310.34;;;19.76;66.48
66021;BME280;52789;59.980;30.346;2023-06-22T00:18:49;101299.97;;;19.73;66.87
66021;BME280;52789;59.980;30.346;2023-06-22T00:21:14;101308.28;;;19.72;66.73
66021;BME280;52789;59.980;30.346;2023-06-22T00:23:39;101290.81;;;19.68;67.35
66021;BME280;52789;59.980;30.346;2023-06-22T00:26:06;101307.44;;;19.65;66.77
66021;BME280;52789;59.980;30.346;2023-06-22T00:28:31;101290.41;;;19.58;66.63
66021;BME280;52789;59.980;30.346;2023-06-22T00:30:57;101296.22;;;19.55;67.93
66021;BME280;52789;59.980;30.346;2023-06-22T00:33:22;101285.81;;;19.52;67.16
66021;BME280;52789;59.980;30.346;2023-06-22T00:35:47;101292.66;;;19.47;66.92
66021;BME280;52789;59.980;30.346;2023-06-22T00:38:13;101279.59;;;19.44;67.74
66021;BME280;52789;59.980;30.346;2023-06-22T00:40:38;101286.03;;;19.43;68.72
66021;BME280;52789;59.980;30.346;2023-06-22T00:43:03;101276.25;;;19.42;67.64
66021;BME280;52789;59.980;30.346;2023-06-22T00:45:30;101284.56;;;19.41;67.30
66021;BME280;52789;59.980;30.346;2023-06-22T00:47:56;101281.25;;;19.39;68.26
66021;BME280;52789;59.980;30.346;2023-06-22T00:50:24;101266.25;;;19.36;69.75
66021;BME280;52789;59.980;30.346;2023-06-22T00:52:52;101274.56;;;19.35;69.38
66021;BME280;52789;59.980;30.346;2023-06-22T00:55:18;101275.00;;;19.32;68.96
66021;BME280;52789;59.980;30.346;2023-06-22T00:57:47;101269.19;;;19.28;68.99
66021;BME280;52789;59.980;30.346;2023-06-22T01:00:13;101271.25;;;19.26;70.47
66021;BME280;52789;59.980;30.346;2023-06-22T01:02:40;101275.00;;;19.25;69.46
66021;BME280;52789;59.980;30.346;2023-06-22T01:05:06;101266.28;;;19.23;69.12
66021;BME280;52789;59.980;30.346;2023-06-22T01:07:34;101264.63;;;19.22;69.53
66021;BME280;52789;59.980;30.346;2023-06-22T01:10:07;101269.81;;;19.24;69.90
66021;BME280;52789;59.980;30.346;2023-06-22T01:12:42;101269.19;;;19.28;69.37
66021;BME280;52789;59.980;30.346;2023-06-22T01:15:18;101260.44;;;19.33;69.99
66021;BME280;52789;59.980;30.346;2023-06-22T01:17:46;101263.19;;;19.39;69.92
66021;BME280;52789;59.980;30.346;2023-06-22T01:20:13;101262.94;;;19.47;68.10
66021;BME280;52789;59.980;30.346;2023-06-22T01:22:52;101263.16;;;19.53;67.88
66021;BME280;52789;59.980;30.346;2023-06-22T01:28:31;101268.78;;;19.58;67.49
66021;BME280;52789;59.980;30.346;2023-06-22T01:30:58;101261.31;;;19.60;67.48
66021;BME280;52789;59.980;30.346;2023-06-22T01:33:34;101263.16;;;19.59;66.95
66021;BME280;52789;59.980;30.346;2023-06-22T01:36:00;101261.50;;;19.58;66.83
66021;BME280;52789;59.980;30.346;2023-06-22T01:38:26;101254.66;;;19.56;67.57
66021;BME280;52789;59.980;30.346;2023-06-22T01:40:52;101253.38;;;19.52;67.25
66021;BME280;52789;59.980;30.346;2023-06-22T01:43:18;101252.16;;;19.47;67.92
66021;BME280;52789;59.980;30.346;2023-06-22T01:45:44;101257.97;;;19.44;67.56
66021;BME280;52789;59.980;30.346;2023-06-22T01:48:11;101255.47;;;19.43;67.78
66021;BME280;52789;59.980;30.346;2023-06-22T01:50:38;101254.66;;;19.42;70.73
66021;BME280;52789;59.980;30.346;2023-06-22T01:53:03;101249.44;;;19.47;68.34
66021;BME280;52789;59.980;30.346;2023-06-22T01:55:31;101245.50;;;19.57;68.34
66021;BME280;52789;59.980;30.346;2023-06-22T01:57:57;101251.34;;;19.67;68.10
66021;BME280;52789;59.980;30.346;2023-06-22T02:00:22;101247.97;;;19.78;66.88
66021;BME280;52789;59.980;30.346;2023-06-22T02:03:03;101255.00;;;19.92;67.07
66021;BME280;52789;59.980;30.346;2023-06-22T02:05:34;101245.22;;;20.04;66.78
66021;BME280;52789;59.980;30.346;2023-06-22T02:08:11;101245.16;;;20.18;66.64
66021;BME280;52789;59.980;30.346;2023-06-22T02:10:40;101244.72;;;20.27;66.66
66021;BME280;52789;59.980;30.346;2023-06-22T02:13:07;101245.28;;;20.36;66.14
66021;BME280;52789;59.980;30.346;2023-06-22T02:15:34;101246.09;;;20.43;66.43
66021;BME280;52789;59.980;30.346;2023-06-22T02:18:00;101242.53;;;20.49;65.88
66021;BME280;52789;59.980;30.346;2023-06-22T02:20:45;101237.94;;;20.56;65.78
66021;BME280;52789;59.980;30.346;2023-06-22T02:23:10;101232.69;;;20.61;66.07
66021;BME280;52789;59.980;30.346;2023-06-22T02:25:36;101234.97;;;20.64;65.78
66021;BME280;52789;59.980;30.346;2023-06-22T02:28:01;101239.13;;;20.67;65.37
66021;BME280;52789;59.980;30.346;2023-06-22T02:30:27;101230.78;;;20.68;64.87
66021;BME280;52789;59.980;30.346;2023-06-22T02:32:52;101229.28;;;20.72;64.44
66021;BME280;52789;59.980;30.346;2023-06-22T02:35:30;101236.16;;;20.75;65.38
66021;BME280;52789;59.980;30.346;2023-06-22T02:38:01;101239.47;;;20.77;64.58
66021;BME280;52789;59.980;30.346;2023-06-22T02:40:27;101230.28;;;20.85;64.11
66021;BME280;52789;59.980;30.346;2023-06-22T02:42:52;101231.66;;;20.94;64.65
66021;BME280;52789;59.980;30.346;2023-06-22T02:45:17;101222.03;;;20.98;64.79
66021;BME280;52789;59.980;30.346;2023-06-22T02:47:43;101227.00;;;21.01;64.69
66021;BME280;52789;59.980;30.346;2023-06-22T02:50:09;101227.97;;;21.13;63.53
66021;BME280;52789;59.980;30.346;2023-06-22T02:52:35;101226.34;;;21.55;62.87
66021;BME280;52789;59.980;30.346;2023-06-22T02:55:00;101219.94;;;22.11;61.88
66021;BME280;52789;59.980;30.346;2023-06-22T02:57:25;101216.41;;;23.12;59.50
66021;BME280;52789;59.980;30.346;2023-06-22T02:59:51;101219.28;;;24.56;55.06
66021;BME280;52789;59.980;30.346;2023-06-22T03:02:16;101217.34;;;25.86;50.76
66021;BME280;52789;59.980;30.346;2023-06-22T03:04:41;101230.00;;;26.90;46.57
66021;BME280;52789;59.980;30.346;2023-06-22T03:07:08;101227.25;;;27.59;43.23
66021;BME280;52789;59.980;30.346;2023-06-22T03:09:33;101231.09;;;28.10;43.71
66021;BME280;52789;59.980;30.346;2023-06-22T03:11:58;101240.28;;;28.46;41.11
66021;BME280;52789;59.980;30.346;2023-06-22T03:14:23;101240.88;;;28.68;41.27
66021;BME280;52789;59.980;30.346;2023-06-22T03:16:49;101245.59;;;28.88;41.21
66021;BME280;52789;59.980;30.346;2023-06-22T03:19:14;101249.72;;;29.06;40.01
66021;BME280;52789;59.980;30.346;2023-06-22T03:21:39;101242.03;;;29.08;40.00
66021;BME280;52789;59.980;30.346;2023-06-22T03:24:05;101236.00;;;29.32;38.99
66021;BME280;52789;59.980;30.346;2023-06-22T03:26:31;101234.31;;;29.66;39.04
66021;BME280;52789;59.980;30.346;2023-06-22T03:28:56;101228.16;;;30.00;39.02
66021;BME280;52789;59.980;30.346;2023-06-22T03:31:22;101227.88;;;30.11;36.57
66021;BME280;52789;59.980;30.346;2023-06-22T03:33:48;101222.13;;;30.08;37.12
66021;BME280;52789;59.980;30.346;2023-06-22T03:36:14;101230.78;;;30.30;37.20
66021;BME280;52789;59.980;30.346;2023-06-22T03:38:44;101226.03;;;30.46;37.42
66021;BME280;52789;59.980;30.346;2023-06-22T03:41:09;101229.97;;;30.30;38.05
66021;BME280;52789;59.980;30.346;2023-06-22T03:43:34;101224.44;;;29.40;38.81
66021;BME280;52789;59.980;30.346;2023-06-22T03:46:00;101219.81;;;28.89;39.38
66021;BME280;52789;59.980;30.346;2023-06-22T03:48:25;101221.22;;;28.97;39.20
66021;BME280;52789;59.980;30.346;2023-06-22T03:50:51;101225.56;;;29.39;38.10
66021;BME280;52789;59.980;30.346;2023-06-22T03:53:17;101221.06;;;29.88;38.26
66021;BME280;52789;59.980;30.346;2023-06-22T03:55:47;101219.75;;;30.40;36.59
66021;BME280;52789;59.980;30.346;2023-06-22T03:58:13;101220.25;;;30.47;36.61
66021;BME280;52789;59.980;30.346;2023-06-22T04:00:39;101222.38;;;30.61;36.26
66021;BME280;52789;59.980;30.346;2023-06-22T04:03:04;101217.97;;;30.60;36.27
66021;BME280;52789;59.980;30.346;2023-06-22T04:05:29;101219.06;;;30.69;36.86
66021;BME280;52789;59.980;30.346;2023-06-22T04:07:55;101210.03;;;30.92;35.99
66021;BME280;52789;59.980;30.346;2023-06-22T04:10:20;101203.38;;;31.03;35.88
66021;BME280;52789;59.980;30.346;2023-06-22T04:12:45;101208.75;;;31.13;35.40
66021;BME280;52789;59.980;30.346;2023-06-22T04:15:11;101201.69;;;31.07;35.35
66021;BME280;52789;59.980;30.346;2023-06-22T04:17:37;101205.41;;;31.22;35.38
66021;BME280;52789;59.980;30.346;2023-06-22T04:20:02;101200.19;;;31.49;34.93
66021;BME280;52789;59.980;30.346;2023-06-22T04:22:29;101201.75;;;31.31;34.43
66021;BME280;52789;59.980;30.346;2023-06-22T04:24:54;101197.81;;;31.08;34.70
66021;BME280;52789;59.980;30.346;2023-06-22T04:27:20;101193.31;;;31.23;35.18
66021;BME280;52789;59.980;30.346;2023-06-22T04:29:48;101197.91;;;31.56;35.00
66021;BME280;52789;59.980;30.346;2023-06-22T04:32:16;101192.88;;;31.63;34.39
66021;BME280;52789;59.980;30.346;2023-06-22T04:34:42;101199.16;;;30.82;35.53
66021;BME280;52789;59.980;30.346;2023-06-22T04:37:08;101191.38;;;29.96;37.26
66021;BME280;52789;59.980;30.346;2023-06-22T04:39:33;101195.44;;;28.98;39.74
66021;BME280;52789;59.980;30.346;2023-06-22T04:41:58;101194.59;;;29.03;39.44
66021;BME280;52789;59.980;30.346;2023-06-22T04:44:27;101202.78;;;29.48;38.88
66021;BME280;52789;59.980;30.346;2023-06-22T04:46:59;101193.13;;;29.71;38.40
66021;BME280;52789;59.980;30.346;2023-06-22T04:49:33;101191.66;;;29.94;37.72
66021;BME280;52789;59.980;30.346;2023-06-22T04:52:07;101189.00;;;30.38;37.15
66021;BME280;52789;59.980;30.346;2023-06-22T04:54:33;101186.53;;;30.76;36.57
66021;BME280;52789;59.980;30.346;2023-06-22T04:56:59;101183.19;;;30.45;37.18
66021;BME280;52789;59.980;30.346;2023-06-22T04:59:26;101181.53;;;29.89;37.52
66021;BME280;52789;59.980;30.346;2023-06-22T05:01:53;101174.34;;;29.99;38.05
66021;BME280;52789;59.980;30.346;2023-06-22T05:04:19;101180.03;;;30.62;36.96
66021;BME280;52789;59.980;30.346;2023-06-22T05:06:44;101176.81;;;31.23;35.95
66021;BME280;52789;59.980;30.346;2023-06-22T05:09:10;101172.44;;;30.48;36.48
66021;BME280;52789;59.980;30.346;2023-06-22T05:11:37;101159.22;;;29.01;39.07
66021;BME280;52789;59.980;30.346;2023-06-22T05:14:02;101165.56;;;27.83;41.41
66021;BME280;52789;59.980;30.346;2023-06-22T05:16:28;101157.00;;;27.64;42.51
66021;BME280;52789;59.980;30.346;2023-06-22T05:18:53;101153.63;;;28.20;41.43
66021;BME280;52789;59.980;30.346;2023-06-22T05:21:23;101151.81;;;29.12;40.12
66021;BME280;52789;59.980;30.346;2023-06-22T05:23:49;101152.03;;;29.46;38.49
66021;BME280;52789;59.980;30.346;2023-06-22T05:26:14;101142.19;;;29.19;39.34
66021;BME280;52789;59.980;30.346;2023-06-22T05:28:40;101137.81;;;28.78;39.63
66021;BME280;52789;59.980;30.346;2023-06-22T05:31:05;101142.03;;;27.82;41.50
66021;BME280;52789;59.980;30.346;2023-06-22T05:33:30;101140.78;;;27.10;43.09
66021;BME280;52789;59.980;30.346;2023-06-22T05:35:56;101136.69;;;26.76;44.12
66021;BME280;52789;59.980;30.346;2023-06-22T05:38:21;101140.00;;;26.51;44.21
66021;BME280;52789;59.980;30.346;2023-06-22T05:40:46;101137.63;;;26.33;44.76
66021;BME280;52789;59.980;30.346;2023-06-22T05:43:12;101129.44;;;26.33;44.76
66021;BME280;52789;59.980;30.346;2023-06-22T05:45:37;101126.78;;;26.38;44.76
66021;BME280;52789;59.980;30.346;2023-06-22T05:48:02;101120.88;;;26.51;44.75
66021;BME280;52789;59.980;30.346;2023-06-22T05:50:28;101116.56;;;26.55;44.37
66021;BME280;52789;59.980;30.346;2023-06-22T05:52:53;101119.34;;;26.60;44.66
66021;BME280;52789;59.980;30.346;2023-06-22T05:55:19;101114.00;;;26.43;45.12
66021;BME280;52789;59.980;30.346;2023-06-22T05:57:44;101119.34;;;26.06;45.69
66021;BME280;52789;59.980;30.346;2023-06-22T06:00:10;101114.84;;;25.95;46.24
66021;BME280;52789;59.980;30.346;2023-06-22T06:02:36;101111.53;;;25.93;45.98
66021;BME280;52789;59.980;30.346;2023-06-22T06:05:02;101110.50;;;25.99;46.06
66021;BME280;52789;59.980;30.346;2023-06-22T06:07:28;101104.91;;;26.11;45.86
66021;BME280;52789;59.980;30.346;2023-06-22T06:09:54;101103.16;;;26.27;45.93
66021;BME280;52789;59.980;30.346;2023-06-22T06:12:20;101095.44;;;26.18;44.50
66021;BME280;52789;59.980;30.346;2023-06-22T06:14:45;101092.38;;;25.88;46.06
66021;BME280;52789;59.980;30.346;2023-06-22T06:17:12;101095.19;;;25.71;46.39
66021;BME280;52789;59.980;30.346;2023-06-22T06:19:37;101088.19;;;25.58;46.93
66021;BME280;52789;59.980;30.346;2023-06-22T06:22:03;101082.16;;;25.56;46.90
66021;BME280;52789;59.980;30.346;2023-06-22T06:24:28;101084.53;;;25.70;46.93
66021;BME280;52789;59.980;30.346;2023-06-22T06:26:54;101083.91;;;25.84;46.63
66021;BME280;52789;59.980;30.346;2023-06-22T06:29:19;101071.22;;;26.00;46.31
66021;BME280;52789;59.980;30.346;2023-06-22T06:31:44;101080.09;;;26.12;46.08
66021;BME280;52789;59.980;30.346;2023-06-22T06:34:09;101063.75;;;26.17;45.70
66021;BME280;52789;59.980;30.346;2023-06-22T06:36:35;101066.50;;;26.17;45.47
66021;BME280;52789;59.980;30.346;2023-06-22T06:39:00;101069.78;;;26.19;45.03
66021;BME280;52789;59.980;30.346;2023-06-22T06:41:26;101070.56;;;26.15;45.30
66021;BME280;52789;59.980;30.346;2023-06-22T06:43:51;101070.88;;;26.18;45.21
66021;BME280;52789;59.980;30.346;2023-06-22T06:46:17;101059.94;;;26.18;45.39
66021;BME280;52789;59.980;30.346;2023-06-22T06:48:45;101051.22;;;26.21;45.68
66021;BME280;52789;59.980;30.346;2023-06-22T06:51:10;101055.03;;;26.20;45.38
66021;BME280;52789;59.980;30.346;2023-06-22T06:53:36;101048.41;;;26.11;45.82
66021;BME280;52789;59.980;30.346;2023-06-22T06:56:01;101051.28;;;26.00;46.78
66021;BME280;52789;59.980;30.346;2023-06-22T06:58:27;101043.84;;;25.90;46.67
66021;BME280;52789;59.980;30.346;2023-06-22T07:00:53;101048.47;;;25.89;46.27
66021;BME280;52789;59.980;30.346;2023-06-22T07:03:19;101051.47;;;25.88;46.47
66021;BME280;52789;59.980;30.346;2023-06-22T07:05:44;101058.81;;;25.87;46.58
66021;BME280;52789;59.980;30.346;2023-06-22T07:08:09;101060.50;;;25.93;46.94
66021;BME280;52789;59.980;30.346;2023-06-22T07:10:35;101055.47;;;26.07;46.82
66021;BME280;52789;59.980;30.346;2023-06-22T07:13:00;101059.06;;;26.13;45.43
66021;BME280;52789;59.980;30.346;2023-06-22T07:15:26;101053.91;;;26.16;45.76
66021;BME280;52789;59.980;30.346;2023-06-22T07:17:51;101047.94;;;26.19;45.93
66021;BME280;52789;59.980;30.346;2023-06-22T07:20:16;101052.34;;;26.25;45.12
66021;BME280;52789;59.980;30.346;2023-06-22T07:22:42;101052.34;;;26.25;45.81
66021;BME280;52789;59.980;30.346;2023-06-22T07:25:08;101049.63;;;26.25;45.46
66021;BME280;52789;59.980;30.346;2023-06-22T07:27:39;101040.31;;;26.21;45.58
66021;BME280;52789;59.980;30.346;2023-06-22T07:30:08;101043.56;;;26.18;45.48
66021;BME280;52789;59.980;30.346;2023-06-22T07:32:33;101044.13;;;26.20;45.22
66021;BME280;52789;59.980;30.346;2023-06-22T07:34:59;101031.88;;;26.23;45.15
66021;BME280;52789;59.980;30.346;2023-06-22T07:37:24;101032.97;;;26.27;45.18
66021;BME280;52789;59.980;30.346;2023-06-22T07:39:49;101031.16;;;26.33;45.59
66021;BME280;52789;59.980;30.346;2023-06-22T07:42:18;101026.19;;;26.30;45.16
66021;BME280;52789;59.980;30.346;2023-06-22T07:44:44;101021.75;;;26.23;45.67
66021;BME280;52789;59.980;30.346;2023-06-22T07:47:09;101016.53;;;26.17;45.70
66021;BME280;52789;59.980;30.346;2023-06-22T07:49:34;101010.78;;;26.13;46.02
66021;BME280;52789;59.980;30.346;2023-06-22T07:52:04;101014.09;;;26.20;46.11
66021;BME280;52789;59.980;30.346;2023-06-22T07:54:30;101003.50;;;26.29;45.96
66021;BME280;52789;59.980;30.346;2023-06-22T07:56:55;101003.34;;;26.36;45.58
66021;BME280;52789;59.980;30.346;2023-06-22T07:59:20;101000.94;;;26.44;46.11
66021;BME280;52789;59.980;30.346;2023-06-22T08:01:46;101009.47;;;26.53;45.84
66021;BME280;52789;59.980;30.346;2023-06-22T08:04:14;101004.28;;;26.57;46.31
66021;BME280;52789;59.980;30.346;2023-06-22T08:06:39;100996.06;;;26.51;46.08
66021;BME280;52789;59.980;30.346;2023-06-22T08:09:05;101000.19;;;26.54;46.46
66021;BME280;52789;59.980;30.346;2023-06-22T08:11:30;100998.91;;;26.62;46.45
66021;BME280;52789;59.980;30.346;2023-06-22T08:13:55;100995.91;;;26.68;45.27
66021;BME280;52789;59.980;30.346;2023-06-22T08:16:23;100990.47;;;26.68;45.28
66021;BME280;52789;59.980;30.346;2023-06-22T08:18:48;100993.22;;;26.73;45.22
66021;BME280;52789;59.980;30.346;2023-06-22T08:21:13;100988.28;;;26.70;46.21
66021;BME280;52789;59.980;30.346;2023-06-22T08:23:38;100984.72;;;26.70;46.45
66021;BME280;52789;59.980;30.346;2023-06-22T08:26:04;100985.88;;;26.79;46.42
66021;BME280;52789;59.980;30.346;2023-06-22T08:28:29;100980.22;;;26.91;44.77
66021;BME280;52789;59.980;30.346;2023-06-22T08:30:54;100970.44;;;27.00;44.99
66021;BME280;52789;59.980;30.346;2023-06-22T08:33:20;100970.44;;;27.00;44.45
66021;BME280;52789;59.980;30.346;2023-06-22T08:35:48;100969.06;;;27.02;44.67
66021;BME280;52789;59.980;30.346;2023-06-22T08:38:14;100967.13;;;26.98;44.83
66021;BME280;52789;59.980;30.346;2023-06-22T08:40:40;100963.22;;;26.89;44.93
66021;BME280;52789;59.980;30.346;2023-06-22T08:43:05;100964.91;;;26.95;44.99
66021;BME280;52789;59.980;30.346;2023-06-22T08:45:31;100959.50;;;27.05;44.39
66021;BME280;52789;59.980;30.346;2023-06-22T08:47:57;100958.44;;;27.16;45.11
66021;BME280;52789;59.980;30.346;2023-06-22T08:50:23;100949.22;;;27.27;44.10
66021;BME280;52789;59.980;30.346;2023-06-22T08:52:49;100952.50;;;27.34;44.41
66021;BME280;52789;59.980;30.346;2023-06-22T08:55:14;100946.53;;;27.48;44.24
66021;BME280;52789;59.980;30.346;2023-06-22T08:57:39;100949.00;;;27.59;44.00
66021;BME280;52789;59.980;30.346;2023-06-22T09:00:06;100945.75;;;27.62;43.97
66021;BME280;52789;59.980;30.346;2023-06-22T09:02:36;100938.63;;;27.56;44.38
66021;BME280;52789;59.980;30.346;2023-06-22T09:05:02;100937.56;;;27.62;44.88
66021;BME280;52789;59.980;30.346;2023-06-22T09:07:28;100941.13;;;27.73;44.04
66021;BME280;52789;59.980;30.346;2023-06-22T09:09:55;100937.31;;;27.79;43.73
66021;BME280;52789;59.980;30.346;2023-06-22T09:12:21;100937.31;;;27.84;43.71
66021;BME280;52789;59.980;30.346;2023-06-22T09:14:50;100933.47;;;27.85;43.44
66021;BME280;52789;59.980;30.346;2023-06-22T09:17:16;100938.13;;;27.90;42.98
66021;BME280;52789;59.980;30.346;2023-06-22T09:19:41;100938.66;;;27.92;43.17
66021;BME280;52789;59.980;30.346;2023-06-22T09:22:06;100930.19;;;27.83;42.65
66021;BME280;52789;59.980;30.346;2023-06-22T09:24:32;100932.94;;;27.88;43.20
66021;BME280;52789;59.980;30.346;2023-06-22T09:26:57;100934.56;;;28.10;43.42
66021;BME280;52789;59.980;30.346;2023-06-22T09:29:23;100934.81;;;28.33;42.81
66021;BME280;52789;59.980;30.346;2023-06-22T09:31:48;100923.00;;;28.53;42.40
66021;BME280;52789;59.980;30.346;2023-06-22T09:34:14;100929.00;;;28.71;42.26
66021;BME280;52789;59.980;30.346;2023-06-22T09:36:40;100930.34;;;28.78;41.80
66021;BME280;52789;59.980;30.346;2023-06-22T09:39:06;100928.97;;;28.86;41.90
66021;BME280;52789;59.980;30.346;2023-06-22T09:41:31;100923.44;;;29.01;41.98
66021;BME280;52789;59.980;30.346;2023-06-22T09:43:57;100925.00;;;29.12;41.52
66021;BME280;52789;59.980;30.346;2023-06-22T09:46:22;100927.25;;;29.05;41.33
66021;BME280;52789;59.980;30.346;2023-06-22T09:48:50;100916.91;;;28.87;41.43
66021;BME280;52789;59.980;30.346;2023-06-22T09:51:16;100906.47;;;28.84;42.30
66021;BME280;52789;59.980;30.346;2023-06-22T09:53:41;100912.47;;;28.91;41.73
66021;BME280;52789;59.980;30.346;2023-06-22T09:56:06;100908.69;;;28.92;41.91
66021;BME280;52789;59.980;30.346;2023-06-22T09:58:32;100896.88;;;28.86;41.79
66021;BME280;52789;59.980;30.346;2023-06-22T10:00:57;100890.63;;;28.71;42.30
66021;BME280;52789;59.980;30.346;2023-06-22T10:03:23;100893.41;;;28.55;42.83
66021;BME280;52789;59.980;30.346;2023-06-22T10:05:48;100888.50;;;28.52;42.73
66021;BME280;52789;59.980;30.346;2023-06-22T10:08:13;100888.75;;;28.56;43.07
66021;BME280;52789;59.980;30.346;2023-06-22T10:10:39;100875.84;;;28.66;42.48
66021;BME280;52789;59.980;30.346;2023-06-22T10:13:08;100875.56;;;28.68;42.10
66021;BME280;52789;59.980;30.346;2023-06-22T10:15:37;100870.38;;;28.61;42.15
66021;BME280;52789;59.980;30.346;2023-06-22T10:18:02;100866.25;;;28.69;42.73
66021;BME280;52789;59.980;30.346;2023-06-22T10:20:27;100865.34;;;28.84;42.30
66021;BME280;52789;59.980;30.346;2023-06-22T10:22:53;100861.50;;;28.95;41.67
66021;BME280;52789;59.980;30.346;2023-06-22T10:25:18;100858.47;;;28.96;39.97
66021;BME280;52789;59.980;30.346;2023-06-22T10:27:44;100859.00;;;28.98;39.52
66021;BME280;52789;59.980;30.346;2023-06-22T10:30:10;100854.34;;;28.99;38.88
66021;BME280;52789;59.980;30.346;2023-06-22T10:32:38;100849.50;;;28.76;39.42
66021;BME280;52789;59.980;30.346;2023-06-22T10:35:03;100835.84;;;28.60;39.71
66021;BME280;52789;59.980;30.346;2023-06-22T10:37:29;100838.88;;;28.59;39.92
66021;BME280;52789;59.980;30.346;2023-06-22T10:39:54;100833.41;;;28.54;40.09
66021;BME280;52789;59.980;30.346;2023-06-22T10:42:20;100831.81;;;28.48;40.29
66021;BME280;52789;59.980;30.346;2023-06-22T10:44:45;100824.72;;;28.31;40.76
66021;BME280;52789;59.980;30.346;2023-06-22T10:47:11;100829.41;;;28.26;41.25
66021;BME280;52789;59.980;30.346;2023-06-22T10:49:38;100823.91;;;28.21;41.46
66021;BME280;52789;59.980;30.346;2023-06-22T10:52:04;100828.56;;;28.20;41.43
66021;BME280;52789;59.980;30.346;2023-06-22T10:54:30;100847.47;;;28.17;41.96
66021;BME280;52789;59.980;30.346;2023-06-22T10:56:55;100860.63;;;28.04;42.12
66021;BME280;52789;59.980;30.346;2023-06-22T10:59:21;100982.41;;;26.94;59.42
66021;BME280;52789;59.980;30.346;2023-06-22T11:01:48;100888.25;;;23.71;73.54
66021;BME280;52789;59.980;30.346;2023-06-22T11:04:14;100875.34;;;22.18;86.85
66021;BME280;52789;59.980;30.346;2023-06-22T11:06:39;100856.44;;;21.76;82.26
66021;BME280;52789;59.980;30.346;2023-06-22T11:09:04;100840.41;;;21.86;88.22
66021;BME280;52789;59.980;30.346;2023-06-22T11:11:29;100845.28;;;22.08;84.19
66021;BME280;52789;59.980;30.346;2023-06-22T11:13:55;100831.09;;;22.41;84.53
66021;BME280;52789;59.980;30.346;2023-06-22T11:16:20;100828.41;;;22.69;86.42
66021;BME280;52789;59.980;30.346;2023-06-22T11:18:45;100824.09;;;22.97;87.90
66021;BME280;52789;59.980;30.346;2023-06-22T11:21:11;100817.81;;;23.25;83.81
66021;BME280;52789;59.980;30.346;2023-06-22T11:23:36;100816.31;;;23.62;78.42
66021;BME280;52789;59.980;30.346;2023-06-22T11:26:01;100828.72;;;24.08;81.31
66021;BME280;52789;59.980;30.346;2023-06-22T11:28:27;100823.84;;;24.49;75.20
66021;BME280;52789;59.980;30.346;2023-06-22T11:30:52;100829.41;;;24.81;84.98
66021;BME280;52789;59.980;30.346;2023-06-22T11:33:18;100827.28;;;25.10;78.57
66021;BME280;52789;59.980;30.346;2023-06-22T11:35:43;100821.19;;;25.25;78.87
66021;BME280;52789;59.980;30.346;2023-06-22T11:38:08;100817.72;;;25.35;76.78
66021;BME280;52789;59.980;30.346;2023-06-22T11:40:34;100817.50;;;25.41;75.23
66021;BME280;52789;59.980;30.346;2023-06-22T11:42:59;100824.59;;;25.42;74.97
66021;BME280;52789;59.980;30.346;2023-06-22T11:45:24;100818.66;;;25.45;73.90
66021;BME280;52789;59.980;30.346;2023-06-22T11:47:50;100806.97;;;25.50;73.35
66021;BME280;52789;59.980;30.346;2023-06-22T11:50:17;100814.09;;;25.56;70.51
66021;BME280;52789;59.980;30.346;2023-06-22T11:52:42;100812.19;;;25.56;65.92
66021;BME280;52789;59.980;30.346;2023-06-22T11:55:07;100800.50;;;25.61;67.35
66021;BME280;52789;59.980;30.346;2023-06-22T11:57:33;100801.13;;;25.68;67.32
66021;BME280;52789;59.980;30.346;2023-06-22T11:59:59;100797.41;;;25.79;67.37
66021;BME280;52789;59.980;30.346;2023-06-22T12:02:24;100796.63;;;25.89;65.69
66021;BME280;52789;59.980;30.346;2023-06-22T12:04:50;100796.72;;;26.04;67.99
66021;BME280;52789;59.980;30.346;2023-06-22T12:07:17;100790.19;;;26.05;66.49
66021;BME280;52789;59.980;30.346;2023-06-22T12:09:43;100797.28;;;26.06;65.85
66021;BME280;52789;59.980;30.346;2023-06-22T12:12:09;100793.47;;;26.07;64.75
66021;BME280;52789;59.980;30.346;2023-06-22T12:14:34;100796.13;;;25.97;62.37
66021;BME280;52789;59.980;30.346;2023-06-22T12:16:59;100783.25;;;25.87;64.70
66021;BME280;52789;59.980;30.346;2023-06-22T12:19:25;100780.25;;;25.89;63.48
66021;BME280;52789;59.980;30.346;2023-06-22T12:21:50;100779.81;;;26.02;62.96
66021;BME280;52789;59.980;30.346;2023-06-22T12:24:15;100781.53;;;26.23;61.95
66021;BME280;52789;59.980;30.346;2023-06-22T12:26:41;100766.63;;;26.36;61.50
66021;BME280;52789;59.980;30.346;2023-06-22T12:29:06;100777.03;;;26.54;62.14
66021;BME280;52789;59.980;30.346;2023-06-22T12:31:32;100772.19;;;26.72;64.36
66021;BME280;52789;59.980;30.346;2023-06-22T12:33:57;100785.56;;;26.73;62.00
66021;BME280;52789;59.980;30.346;2023-06-22T12:36:22;100790.50;;;26.76;61.44
66021;BME280;52789;59.980;30.346;2023-06-22T12:38:49;100777.16;;;26.90;61.20